Time;durP1;ratioP1;P1;durP2;ratioP2;P2;SDS_P1;SDS_P2;PMS_P1;PMS_P2;Temp;Humidity;BMP_temperature;BMP_pressure;BME280_temperature;BME280_humidity;BME280_pressure;Samples;Min_cycle;Max_cycle;Signal;HPM_P1;HPM_P2
2022/12/22 03:26:29;;;;;;;1.90;0.80;;;;;;;;;;8270554;28;20195;-75
2022/12/22 03:30:29;;;;;;;1.45;0.70;;;;;;;;;;8269095;28;20057;-76
2022/12/22 03:34:29;;;;;;;1.45;0.90;;;;;;;;;;8267756;28;20037;-75
2022/12/22 03:38:30;;;;;;;1.23;0.70;;;;;;;;;;8278617;28;20144;-76
2022/12/22 03:46:49;;;;;;;1.10;0.70;;;;;;;;;;8268882;28;20236;-75
2022/12/22 03:50:50;;;;;;;2.47;1.08;;;;;;;;;;8269563;28;20053;-76
2022/12/22 03:54:50;;;;;;;2.40;0.95;;;;;;;;;;8270158;28;20045;-76
2022/12/22 03:58:51;;;;;;;1.25;0.90;;;;;;;;;;8268869;28;20120;-75
2022/12/22 04:02:51;;;;;;;4.63;1.08;;;;;;;;;;8267454;28;20279;-75
2022/12/22 04:06:51;;;;;;;1.67;0.85;;;;;;;;;;8282419;28;20037;-75
2022/12/22 04:15:10;;;;;;;1.70;0.63;;;;;;;;;;8266940;28;20037;-76
2022/12/22 04:19:11;;;;;;;1.33;0.90;;;;;;;;;;8266843;28;20025;-75
2022/12/22 04:23:11;;;;;;;0.65;0.65;;;;;;;;;;8278171;28;20268;-75
2022/12/22 04:27:11;;;;;;;0.60;0.60;;;;;;;;;;8267511;28;20044;-75
2022/12/22 04:31:12;;;;;;;0.85;0.65;;;;;;;;;;8266696;28;20049;-75
2022/12/22 04:35:12;;;;;;;2.00;0.73;;;;;;;;;;8267425;28;20095;-75
2022/12/22 04:39:12;;;;;;;0.73;0.50;;;;;;;;;;8267123;28;20030;-75
2022/12/22 04:43:12;;;;;;;1.25;0.60;;;;;;;;;;8268520;28;20041;-75
2022/12/22 04:47:13;;;;;;;0.68;0.65;;;;;;;;;;8266006;28;20041;-75
2022/12/22 04:51:13;;;;;;;0.50;0.50;;;;;;;;;;8276361;28;20026;-76
2022/12/22 04:55:13;;;;;;;0.75;0.50;;;;;;;;;;8266720;28;20034;-75
2022/12/22 04:59:13;;;;;;;0.63;0.60;;;;;;;;;;8268541;28;20029;-76
2022/12/22 05:03:13;;;;;;;0.50;0.50;;;;;;;;;;8265533;28;20143;-75
2022/12/22 05:07:14;;;;;;;0.57;0.50;;;;;;;;;;8267493;28;20137;-75
2022/12/22 05:11:14;;;;;;;1.92;0.70;;;;;;;;;;8265400;28;20513;-75
2022/12/22 05:15:14;;;;;;;0.65;0.63;;;;;;;;;;8266393;28;20030;-76
2022/12/22 05:19:14;;;;;;;2.80;0.90;;;;;;;;;;8282164;28;20083;-75
2022/12/22 05:23:14;;;;;;;2.45;0.80;;;;;;;;;;8273288;28;20026;-75
2022/12/22 05:27:15;;;;;;;2.50;1.10;;;;;;;;;;8271478;28;20029;-75
2022/12/22 05:31:19;;;;;;;1.08;0.80;;;;;;;;;;8270086;28;20037;-75
2022/12/22 05:35:20;;;;;;;2.40;1.20;;;;;;;;;;8272802;28;20022;-76
2022/12/22 05:39:20;;;;;;;2.00;0.85;;;;;;;;;;8274525;28;20072;-76
2022/12/22 05:43:20;;;;;;;2.00;0.80;;;;;;;;;;8273608;28;20025;-75
2022/12/22 05:47:20;;;;;;;2.63;0.88;;;;;;;;;;8270826;28;20037;-76
2022/12/22 05:51:21;;;;;;;2.42;0.70;;;;;;;;;;8281490;28;20029;-76
2022/12/22 05:55:21;;;;;;;1.08;0.65;;;;;;;;;;8269673;28;20643;-75
2022/12/22 05:59:21;;;;;;;2.28;0.90;;;;;;;;;;8271919;28;20037;-75
2022/12/22 06:03:21;;;;;;;2.58;0.70;;;;;;;;;;8278966;28;20034;-75
2022/12/22 06:07:21;;;;;;;0.80;0.70;;;;;;;;;;8270324;28;20045;-75
2022/12/22 06:11:22;;;;;;;3.63;0.80;;;;;;;;;;8270104;28;20912;-75
2022/12/22 06:15:22;;;;;;;2.22;0.70;;;;;;;;;;8268466;28;20037;-74
2022/12/22 06:19:22;;;;;;;2.28;0.70;;;;;;;;;;8271835;28;20041;-75
2022/12/22 06:23:22;;;;;;;1.03;0.70;;;;;;;;;;8279074;28;20117;-75
2022/12/22 06:27:23;;;;;;;1.23;0.60;;;;;;;;;;8269199;28;20037;-75
2022/12/22 06:31:23;;;;;;;2.08;0.63;;;;;;;;;;8268963;28;20572;-75
2022/12/22 06:35:23;;;;;;;0.50;0.50;;;;;;;;;;8269981;28;20030;-75
2022/12/22 06:39:23;;;;;;;0.98;0.50;;;;;;;;;;8269967;28;20299;-76
2022/12/22 06:43:24;;;;;;;1.00;0.60;;;;;;;;;;8268758;28;20054;-75
2022/12/22 06:47:24;;;;;;;0.55;0.40;;;;;;;;;;8268944;28;20159;-75
2022/12/22 06:51:24;;;;;;;0.40;0.40;;;;;;;;;;8268886;28;20049;-75
2022/12/22 06:55:24;;;;;;;0.50;0.50;;;;;;;;;;8269987;28;20107;-75
2022/12/22 06:59:25;;;;;;;0.50;0.50;;;;;;;;;;8270203;28;20641;-75
2022/12/22 07:03:25;;;;;;;1.65;0.57;;;;;;;;;;8269993;28;20029;-75
2022/12/22 07:07:25;;;;;;;0.80;0.80;;;;;;;;;;8284251;28;20033;-75
2022/12/22 07:11:25;;;;;;;0.50;0.50;;;;;;;;;;8268551;28;20025;-74
2022/12/22 07:15:26;;;;;;;1.88;0.60;;;;;;;;;;8268247;28;20283;-74
2022/12/22 07:19:26;;;;;;;0.93;0.80;;;;;;;;;;8269972;28;20037;-74
2022/12/22 07:23:26;;;;;;;2.53;0.80;;;;;;;;;;8268616;28;20416;-75
2022/12/22 07:27:26;;;;;;;3.58;1.20;;;;;;;;;;8268533;28;20029;-76
2022/12/22 07:31:27;;;;;;;2.38;1.00;;;;;;;;;;8266073;28;20052;-76
2022/12/22 07:35:27;;;;;;;5.75;1.30;;;;;;;;;;8266767;28;20033;-76
2022/12/22 07:39:27;;;;;;;2.17;0.88;;;;;;;;;;8280526;28;20255;-76
2022/12/22 07:43:27;;;;;;;3.92;1.20;;;;;;;;;;8267303;28;20061;-76
2022/12/22 07:47:27;;;;;;;4.53;1.15;;;;;;;;;;8265564;28;20034;-76
2022/12/22 07:51:30;;;;;;;3.60;1.20;;;;;;;;;;8266683;28;20029;-77
2022/12/22 07:55:34;;;;;;;8.40;1.45;;;;;;;;;;8265657;28;21029;-76
2022/12/22 07:59:34;;;;;;;6.27;1.63;;;;;;;;;;8266426;28;20022;-76
2022/12/22 08:03:34;;;;;;;5.82;1.55;;;;;;;;;;8265361;28;20268;-76
2022/12/22 08:07:35;;;;;;;6.88;1.70;;;;;;;;;;8267623;28;20099;-77
2022/12/22 08:11:35;;;;;;;8.77;2.10;;;;;;;;;;8266167;28;20072;-76
2022/12/22 08:15:36;;;;;;;7.22;1.60;;;;;;;;;;8265971;28;20041;-76
2022/12/22 08:19:37;;;;;;;11.57;2.63;;;;;;;;;;8266040;28;20029;-77
2022/12/22 08:23:37;;;;;;;13.17;2.10;;;;;;;;;;8266156;28;20014;-76
2022/12/22 08:27:41;;;;;;;6.43;1.70;;;;;;;;;;8262541;28;20355;-77
2022/12/22 08:31:41;;;;;;;;;;;;;;;;;;8265321;28;20366;-77
2022/12/22 08:35:42;;;;;;;7.15;1.75;;;;;;;;;;8264094;28;20427;-77
2022/12/22 08:39:43;;;;;;;7.25;1.63;;;;;;;;;;8265265;28;20087;-77
2022/12/22 08:43:43;;;;;;;7.25;1.58;;;;;;;;;;8265743;28;20084;-76
2022/12/22 08:47:43;;;;;;;6.10;1.30;;;;;;;;;;8279075;28;20045;-76
2022/12/22 08:51:44;;;;;;;6.40;1.42;;;;;;;;;;8269237;28;20841;-77
2022/12/22 08:55:52;;;;;;;4.05;1.45;;;;;;;;;;8271292;28;20044;-76
2022/12/22 08:59:52;;;;;;;7.43;1.40;;;;;;;;;;8277946;28;20033;-77
2022/12/22 09:03:53;;;;;;;6.60;1.52;;;;;;;;;;8270973;28;20030;-77
2022/12/22 09:07:54;;;;;;;6.55;1.10;;;;;;;;;;8269896;28;20616;-77
2022/12/22 09:11:54;;;;;;;5.65;1.40;;;;;;;;;;8270985;28;20033;-76
2022/12/22 09:15:54;;;;;;;5.93;1.30;;;;;;;;;;8269728;28;20041;-77
2022/12/22 09:19:54;;;;;;;4.60;1.37;;;;;;;;;;8278771;28;20284;-76
2022/12/22 09:23:55;;;;;;;7.10;1.83;;;;;;;;;;8270798;28;20252;-76
2022/12/22 09:27:55;;;;;;;7.80;1.38;;;;;;;;;;8268856;28;20099;-77
2022/12/22 09:31:55;;;;;;;4.40;1.13;;;;;;;;;;8270537;28;20048;-77
2022/12/22 09:35:56;;;;;;;4.93;1.40;;;;;;;;;;8269110;28;20049;-76
2022/12/22 09:39:56;;;;;;;2.83;0.98;;;;;;;;;;8269398;28;20025;-76
2022/12/22 09:44:00;;;;;;;2.38;1.05;;;;;;;;;;8269026;28;20741;-77
2022/12/22 09:48:01;;;;;;;3.03;1.00;;;;;;;;;;8266815;28;20842;-76
2022/12/22 09:52:01;;;;;;;1.97;1.03;;;;;;;;;;8283733;28;20031;-77
2022/12/22 09:56:02;;;;;;;3.00;0.90;;;;;;;;;;8274468;28;20280;-76
2022/12/22 10:00:22;;;;;;;1.65;0.70;;;;;;;;;;8267784;28;20029;-77
2022/12/22 10:04:34;;;;;;;3.05;0.90;;;;;;;;;;8265416;28;20042;-76
2022/12/22 10:08:36;;;;;;;1.55;0.80;;;;;;;;;;8269410;28;20120;-74
2022/12/22 10:12:36;;;;;;;0.77;0.60;;;;;;;;;;8265939;28;20030;-76
2022/12/22 10:16:36;;;;;;;2.00;0.77;;;;;;;;;;8265688;28;20045;-75
2022/12/22 10:20:38;;;;;;;1.80;0.70;;;;;;;;;;8279764;28;20041;-75
2022/12/22 10:24:39;;;;;;;1.10;0.60;;;;;;;;;;8280565;28;20119;-76
2022/12/22 10:29:05;;;;;;;1.38;0.50;;;;;;;;;;8266106;28;20049;-75
2022/12/22 10:33:12;;;;;;;1.48;0.60;;;;;;;;;;8262902;28;20189;-74
2022/12/22 10:37:13;;;;;;;0.75;0.50;;;;;;;;;;8266396;28;20040;-74
2022/12/22 10:41:13;;;;;;;0.50;0.50;;;;;;;;;;8268308;28;20022;-74
2022/12/22 10:45:21;;;;;;;0.33;0.33;;;;;;;;;;8265043;28;20272;-75
2022/12/22 10:49:23;;;;;;;0.77;0.47;;;;;;;;;;8263484;28;20276;-75
2022/12/22 10:53:41;;;;;;;0.40;0.40;;;;;;;;;;8265147;28;20025;-75
2022/12/22 10:57:42;;;;;;;0.40;0.40;;;;;;;;;;8279018;28;20103;-76
2022/12/22 11:01:42;;;;;;;0.77;0.45;;;;;;;;;;8270414;28;20033;-74
2022/12/22 11:05:43;;;;;;;0.40;0.40;;;;;;;;;;8264167;28;20029;-74
2022/12/22 11:09:43;;;;;;;1.35;0.50;;;;;;;;;;8266244;28;20029;-75
2022/12/22 11:13:46;;;;;;;0.50;0.50;;;;;;;;;;8266243;28;20099;-75
2022/12/22 11:17:55;;;;;;;0.97;0.40;;;;;;;;;;8264068;28;20096;-75
2022/12/22 11:22:02;;;;;;;0.60;0.60;;;;;;;;;;8262818;28;20753;-74
2022/12/22 11:26:07;;;;;;;1.27;0.50;;;;;;;;;;8262109;28;20026;-74
2022/12/22 11:30:08;;;;;;;0.40;0.40;;;;;;;;;;8271229;28;20083;-74
2022/12/22 11:34:27;;;;;;;0.50;0.50;;;;;;;;;;8263346;28;20021;-74
2022/12/22 11:38:33;;;;;;;0.40;0.40;;;;;;;;;;8263845;28;20028;-74
2022/12/22 11:43:03;;;;;;;0.30;0.30;;;;;;;;;;8264267;28;20109;-75
2022/12/22 11:47:24;;;;;;;1.63;0.47;;;;;;;;;;8250303;28;20112;-74
2022/12/22 11:51:24;;;;;;;1.95;0.60;;;;;;;;;;8264859;28;20029;-74
2022/12/22 11:55:25;;;;;;;0.68;0.50;;;;;;;;;;8262154;28;20828;-75
2022/12/22 11:59:46;;;;;;;0.68;0.50;;;;;;;;;;8263391;28;21161;-75
2022/12/22 12:03:52;;;;;;;1.30;0.40;;;;;;;;;;8270422;28;20131;-75
2022/12/22 12:07:57;;;;;;;0.40;0.40;;;;;;;;;;8264489;28;20030;-74
2022/12/22 12:11:57;;;;;;;0.50;0.50;;;;;;;;;;8261392;28;20101;-75
2022/12/22 12:15:57;;;;;;;3.10;0.82;;;;;;;;;;8261826;28;20064;-75
2022/12/22 12:20:16;;;;;;;0.40;0.40;;;;;;;;;;8263984;28;20084;-75
2022/12/22 12:24:36;;;;;;;0.40;0.40;;;;;;;;;;8261085;28;20048;-74
2022/12/22 12:28:45;;;;;;;1.20;0.50;;;;;;;;;;8260808;28;20025;-74
2022/12/22 12:32:57;;;;;;;0.55;0.55;;;;;;;;;;8263510;28;20089;-75
2022/12/22 12:37:02;;;;;;;0.73;0.50;;;;;;;;;;8261729;28;20024;-74
2022/12/22 12:41:10;;;;;;;1.02;0.40;;;;;;;;;;8263422;28;20035;-75
2022/12/22 12:45:29;;;;;;;0.50;0.50;;;;;;;;;;8261298;28;20033;-75
2022/12/22 12:49:33;;;;;;;0.60;0.50;;;;;;;;;;8261790;28;21040;-75
2022/12/22 12:53:33;;;;;;;0.40;0.40;;;;;;;;;;8263122;28;20034;-75
2022/12/22 12:57:46;;;;;;;0.52;0.50;;;;;;;;;;8262495;28;20029;-75
2022/12/22 13:01:53;;;;;;;0.87;0.60;;;;;;;;;;8262582;28;20037;-75
2022/12/22 13:05:58;;;;;;;0.50;0.50;;;;;;;;;;8263151;28;20045;-75
2022/12/22 13:10:16;;;;;;;0.63;0.47;;;;;;;;;;8261154;28;20024;-76
2022/12/22 13:14:35;;;;;;;0.50;0.50;;;;;;;;;;8263140;28;20993;-74
2022/12/22 13:18:36;;;;;;;2.10;0.60;;;;;;;;;;8265044;28;20076;-75
2022/12/22 13:22:36;;;;;;;0.50;0.50;;;;;;;;;;8263832;28;20026;-75
2022/12/22 13:26:38;;;;;;;0.50;0.50;;;;;;;;;;8261529;28;20029;-75
2022/12/22 13:30:39;;;;;;;0.93;0.70;;;;;;;;;;8262361;28;20054;-75
2022/12/22 13:34:45;;;;;;;0.50;0.50;;;;;;;;;;8261355;28;20030;-75
2022/12/22 13:38:45;;;;;;;1.50;0.60;;;;;;;;;;8265627;28;20030;-75
2022/12/22 13:42:47;;;;;;;0.77;0.50;;;;;;;;;;8268314;28;20117;-74
2022/12/22 13:46:47;;;;;;;0.50;0.50;;;;;;;;;;8267070;28;20949;-74
2022/12/22 13:50:52;;;;;;;2.53;1.50;;;;;;;;;;8269423;28;20549;-75
2022/12/22 13:54:52;;;;;;;1.27;0.80;;;;;;;;;;8271517;28;20375;-75
2022/12/22 13:58:56;;;;;;;1.95;0.57;;;;;;;;;;8272858;28;20129;-75
2022/12/22 14:02:56;;;;;;;1.27;0.70;;;;;;;;;;8278070;28;20199;-75
2022/12/22 14:07:08;;;;;;;0.55;0.40;;;;;;;;;;8271564;28;20136;-76
2022/12/22 14:11:08;;;;;;;1.58;0.70;;;;;;;;;;8271055;28;20025;-75
2022/12/22 14:15:14;;;;;;;0.60;0.50;;;;;;;;;;8272002;28;20022;-76
2022/12/22 14:19:18;;;;;;;0.60;0.60;;;;;;;;;;8270143;28;20084;-74
2022/12/22 14:23:28;;;;;;;0.60;0.60;;;;;;;;;;8270294;28;20025;-75
2022/12/22 14:27:36;;;;;;;0.98;0.45;;;;;;;;;;8269621;28;20030;-75
2022/12/22 14:31:49;;;;;;;0.60;0.60;;;;;;;;;;8269346;28;20072;-75
2022/12/22 14:35:49;;;;;;;1.75;0.60;;;;;;;;;;8269993;28;20076;-75
2022/12/22 14:39:55;;;;;;;0.50;0.50;;;;;;;;;;8268852;28;20025;-75
2022/12/22 14:43:57;;;;;;;0.90;0.60;;;;;;;;;;8265550;28;20037;-75
2022/12/22 14:47:57;;;;;;;0.68;0.50;;;;;;;;;;8267752;28;20041;-75
2022/12/22 14:52:02;;;;;;;0.43;0.43;;;;;;;;;;8267123;28;20656;-75
2022/12/22 14:56:02;;;;;;;5.07;0.90;;;;;;;;;;8265493;28;20394;-75
2022/12/22 15:00:05;;;;;;;0.50;0.50;;;;;;;;;;8264540;28;20075;-74
2022/12/22 15:04:14;;;;;;;2.10;0.73;;;;;;;;;;8268122;28;20025;-74
2022/12/22 15:08:32;;;;;;;0.90;0.68;;;;;;;;;;8265143;28;20072;-74
2022/12/22 15:12:34;;;;;;;1.40;0.73;;;;;;;;;;8265700;28;20049;-74
2022/12/22 15:16:34;;;;;;;0.73;0.73;;;;;;;;;;8264510;28;20044;-74
2022/12/22 15:20:35;;;;;;;2.60;0.80;;;;;;;;;;8264664;28;20025;-74
2022/12/22 15:24:35;;;;;;;0.82;0.60;;;;;;;;;;8273319;28;20144;-76
2022/12/22 15:28:35;;;;;;;1.52;0.88;;;;;;;;;;8267170;28;20030;-74
2022/12/22 15:32:35;;;;;;;2.83;0.90;;;;;;;;;;8263108;28;20038;-75
2022/12/22 15:36:36;;;;;;;1.63;0.80;;;;;;;;;;8263818;28;20030;-75
2022/12/22 15:40:36;;;;;;;1.48;0.80;;;;;;;;;;8262892;28;19924;-75
2022/12/22 15:44:36;;;;;;;1.65;0.73;;;;;;;;;;8263521;28;20032;-74
2022/12/22 15:48:37;;;;;;;3.25;1.10;;;;;;;;;;8262691;28;20562;-74
2022/12/22 15:52:37;;;;;;;1.98;1.48;;;;;;;;;;8264242;28;20419;-75
2022/12/22 15:56:38;;;;;;;2.78;1.00;;;;;;;;;;8277525;28;20029;-75
2022/12/22 16:00:38;;;;;;;0.85;0.80;;;;;;;;;;8264733;28;20050;-75
2022/12/22 16:04:39;;;;;;;0.90;0.63;;;;;;;;;;8260141;28;20014;-75
2022/12/22 16:08:41;;;;;;;0.70;0.70;;;;;;;;;;8262649;28;20779;-75
2022/12/22 16:12:43;;;;;;;6.80;1.40;;;;;;;;;;8262153;28;20046;-75
2022/12/22 16:16:45;;;;;;;4.85;1.45;;;;;;;;;;8260554;28;20127;-75
2022/12/22 16:20:46;;;;;;;10.60;2.00;;;;;;;;;;8261030;28;20128;-75
2022/12/22 16:24:47;;;;;;;6.07;1.90;;;;;;;;;;8262739;28;20057;-75
2022/12/22 16:28:48;;;;;;;15.80;2.50;;;;;;;;;;8263107;28;20534;-75
2022/12/22 16:32:48;;;;;;;19.92;3.83;;;;;;;;;;8261390;28;20265;-75
2022/12/22 16:36:48;;;;;;;13.77;3.78;;;;;;;;;;8262524;28;20029;-75
2022/12/22 16:40:50;;;;;;;25.75;3.58;;;;;;;;;;8263564;28;20040;-75
2022/12/22 16:44:50;;;;;;;22.45;3.80;;;;;;;;;;8263753;28;20689;-76
2022/12/22 16:48:52;;;;;;;21.95;3.60;;;;;;;;;;8262159;28;20041;-74
2022/12/22 16:52:52;;;;;;;16.55;3.83;;;;;;;;;;8261369;28;20029;-75
2022/12/22 16:56:52;;;;;;;25.40;4.37;;;;;;;;;;8264157;28;20083;-75
2022/12/22 17:00:53;;;;;;;20.73;4.30;;;;;;;;;;8276758;28;20256;-75
2022/12/22 17:04:55;;;;;;;29.85;5.20;;;;;;;;;;8264380;28;20115;-74
2022/12/22 17:08:55;;;;;;;23.50;4.20;;;;;;;;;;8265471;28;20029;-75
2022/12/22 17:12:56;;;;;;;24.40;4.75;;;;;;;;;;8268953;28;20122;-76
2022/12/22 17:16:56;;;;;;;23.50;4.30;;;;;;;;;;8268409;28;20037;-75
2022/12/22 17:20:58;;;;;;;25.10;4.32;;;;;;;;;;8271952;28;20387;-75
2022/12/22 17:25:00;;;;;;;21.35;3.97;;;;;;;;;;8268547;28;20117;-75
2022/12/22 17:29:00;;;;;;;19.15;4.25;;;;;;;;;;8268564;28;20060;-74
2022/12/22 17:33:01;;;;;;;18.05;3.83;;;;;;;;;;8268624;28;20037;-75
2022/12/22 17:37:01;;;;;;;13.65;3.03;;;;;;;;;;8269697;28;20654;-75
2022/12/22 17:41:02;;;;;;;20.95;3.35;;;;;;;;;;8268766;28;20018;-74
2022/12/22 17:45:02;;;;;;;18.67;3.88;;;;;;;;;;8269006;28;20025;-75
2022/12/22 17:49:02;;;;;;;24.37;4.03;;;;;;;;;;8271482;28;20047;-75
2022/12/22 17:53:03;;;;;;;28.60;4.27;;;;;;;;;;8268727;28;20347;-76
2022/12/22 17:57:05;;;;;;;27.05;5.03;;;;;;;;;;8266936;28;20070;-76
2022/12/22 18:01:08;;;;;;;25.75;4.65;;;;;;;;;;8269699;28;20048;-74
2022/12/22 18:05:12;;;;;;;23.35;4.45;;;;;;;;;;8267169;28;20032;-75
2022/12/22 18:09:17;;;;;;;27.63;4.75;;;;;;;;;;8269678;28;20029;-75
2022/12/22 18:13:21;;;;;;;28.42;4.85;;;;;;;;;;8265679;28;20107;-75
2022/12/22 18:17:22;;;;;;;;;;;;;;;;;;8266568;28;20544;-75
2022/12/22 18:21:23;;;;;;;26.65;4.70;;;;;;;;;;8267081;28;19952;-75
2022/12/22 18:25:25;;;;;;;24.55;4.80;;;;;;;;;;8265286;28;20022;-74
2022/12/22 18:29:25;;;;;;;17.77;3.90;;;;;;;;;;8266290;28;20030;-74
2022/12/22 18:33:25;;;;;;;29.30;5.13;;;;;;;;;;8267751;28;20710;-75
2022/12/22 18:37:25;;;;;;;22.30;4.17;;;;;;;;;;8266889;28;20026;-75
2022/12/22 18:41:28;;;;;;;28.10;5.65;;;;;;;;;;8266157;28;20272;-74
2022/12/22 18:45:29;;;;;;;19.90;4.18;;;;;;;;;;8264838;28;20037;-74
2022/12/22 18:49:29;;;;;;;27.30;4.75;;;;;;;;;;8265787;28;20029;-75
2022/12/22 18:53:30;;;;;;;26.38;4.65;;;;;;;;;;8272846;28;20029;-74
2022/12/22 18:57:30;;;;;;;14.65;3.65;;;;;;;;;;8264575;28;20118;-75
2022/12/22 19:01:30;;;;;;;14.40;3.58;;;;;;;;;;8263356;28;20038;-75
2022/12/22 19:05:31;;;;;;;16.23;3.07;;;;;;;;;;8265458;28;20727;-75
2022/12/22 19:09:32;;;;;;;13.95;2.60;;;;;;;;;;8264514;28;20108;-75
2022/12/22 19:13:39;;;;;;;16.60;2.67;;;;;;;;;;8263140;28;20040;-75
2022/12/22 19:17:40;;;;;;;8.93;2.45;;;;;;;;;;8262230;28;20292;-75
2022/12/22 19:21:40;;;;;;;10.00;2.40;;;;;;;;;;8264270;28;20068;-75
2022/12/22 19:25:41;;;;;;;5.90;2.10;;;;;;;;;;8266028;28;20017;-75
2022/12/22 19:29:42;;;;;;;7.07;1.73;;;;;;;;;;8264385;28;20034;-75
2022/12/22 19:33:42;;;;;;;3.58;1.30;;;;;;;;;;8261265;28;20034;-75
2022/12/22 19:37:43;;;;;;;2.65;1.17;;;;;;;;;;8264012;28;20138;-76
2022/12/22 19:41:45;;;;;;;4.15;1.20;;;;;;;;;;8263513;28;20128;-76
2022/12/22 19:45:50;;;;;;;3.58;1.10;;;;;;;;;;8263288;28;20063;-75
2022/12/22 19:49:50;;;;;;;3.80;1.08;;;;;;;;;;8263152;28;20025;-75
2022/12/22 19:53:50;;;;;;;2.67;1.00;;;;;;;;;;8263799;28;20028;-75
2022/12/22 19:57:50;;;;;;;4.20;1.33;;;;;;;;;;8262412;28;20021;-75
2022/12/22 20:01:51;;;;;;;3.10;1.20;;;;;;;;;;8264708;28;20042;-75
2022/12/22 20:05:51;;;;;;;3.95;1.40;;;;;;;;;;8262925;28;20889;-75
2022/12/22 20:09:51;;;;;;;4.40;1.40;;;;;;;;;;8264816;28;20024;-75
2022/12/22 20:13:52;;;;;;;3.75;1.30;;;;;;;;;;8264559;28;20025;-75
2022/12/22 20:17:53;;;;;;;3.75;1.20;;;;;;;;;;8260303;28;20450;-74
2022/12/22 20:21:53;;;;;;;3.28;1.00;;;;;;;;;;8264148;28;20909;-75
2022/12/22 20:25:57;;;;;;;1.98;1.10;;;;;;;;;;8276966;28;20742;-76
2022/12/22 20:29:57;;;;;;;2.97;1.17;;;;;;;;;;8265990;28;20083;-75
2022/12/22 20:33:59;;;;;;;3.60;1.00;;;;;;;;;;8268422;28;20038;-75
2022/12/22 20:38:00;;;;;;;4.00;1.10;;;;;;;;;;8267224;28;20017;-76
2022/12/22 20:42:00;;;;;;;1.03;0.83;;;;;;;;;;8262939;28;20025;-75
2022/12/22 20:46:05;;;;;;;3.65;1.35;;;;;;;;;;8267933;28;20261;-75
2022/12/22 20:50:35;;;;;;;5.25;1.33;;;;;;;;;;8271097;28;20032;-76
2022/12/22 20:54:35;;;;;;;4.65;1.35;;;;;;;;;;8256220;28;20880;-75
2022/12/22 20:58:36;;;;;;;5.03;1.40;;;;;;;;;;8268014;28;20030;-75
2022/12/22 21:02:36;;;;;;;1.88;1.10;;;;;;;;;;8266337;28;20034;-75
2022/12/22 21:06:37;;;;;;;5.72;1.67;;;;;;;;;;8266584;28;20036;-76
2022/12/22 21:10:38;;;;;;;5.32;1.58;;;;;;;;;;8265064;28;20032;-75
2022/12/22 21:14:38;;;;;;;2.08;1.05;;;;;;;;;;8266637;28;20037;-75
2022/12/22 21:18:39;;;;;;;2.63;1.20;;;;;;;;;;8266728;28;20033;-77
2022/12/22 21:22:39;;;;;;;2.35;1.20;;;;;;;;;;8268621;28;20319;-75
2022/12/22 21:26:41;;;;;;;3.88;1.20;;;;;;;;;;8265522;28;20024;-76
2022/12/22 21:30:41;;;;;;;3.15;1.10;;;;;;;;;;8264820;28;20045;-75
2022/12/22 21:34:42;;;;;;;3.53;1.15;;;;;;;;;;8271443;28;20021;-76
2022/12/22 21:38:42;;;;;;;2.57;1.00;;;;;;;;;;8267556;28;20026;-76
2022/12/22 21:42:42;;;;;;;2.73;0.80;;;;;;;;;;8268159;28;20364;-76
2022/12/22 21:46:44;;;;;;;3.90;0.90;;;;;;;;;;8263693;28;20928;-76
2022/12/22 21:50:45;;;;;;;2.08;0.95;;;;;;;;;;8266566;28;20030;-75
2022/12/22 21:54:45;;;;;;;1.65;0.80;;;;;;;;;;8265411;28;20025;-75
2022/12/22 21:58:46;;;;;;;2.80;0.83;;;;;;;;;;8269099;28;20635;-76
2022/12/22 22:02:46;;;;;;;2.67;0.90;;;;;;;;;;8286316;28;20284;-76
2022/12/22 22:06:49;;;;;;;2.17;0.98;;;;;;;;;;8277635;28;20343;-76
2022/12/22 22:10:49;;;;;;;0.80;0.80;;;;;;;;;;8272852;28;20788;-76
2022/12/22 22:14:49;;;;;;;6.28;2.20;;;;;;;;;;8271645;28;20022;-76
2022/12/22 22:18:50;;;;;;;7.75;3.45;;;;;;;;;;8277574;28;20133;-75
2022/12/22 22:22:51;;;;;;;5.40;3.08;;;;;;;;;;8272612;28;20025;-75
2022/12/22 22:26:51;;;;;;;3.80;2.22;;;;;;;;;;8272323;28;20128;-75
2022/12/22 22:30:52;;;;;;;2.67;1.53;;;;;;;;;;8272442;28;20141;-75
2022/12/22 22:34:52;;;;;;;2.20;1.00;;;;;;;;;;8269968;28;20376;-75
2022/12/22 22:38:53;;;;;;;1.58;0.80;;;;;;;;;;8284268;28;20024;-76
2022/12/22 22:42:55;;;;;;;2.58;0.82;;;;;;;;;;8285437;28;20037;-75
2022/12/22 22:46:55;;;;;;;1.55;0.80;;;;;;;;;;8268370;28;20662;-75
2022/12/22 22:50:55;;;;;;;2.10;0.85;;;;;;;;;;8268913;28;20033;-76
2022/12/22 22:54:56;;;;;;;1.10;0.70;;;;;;;;;;8270030;28;20029;-77
2022/12/22 22:58:57;;;;;;;1.95;0.70;;;;;;;;;;8268983;28;20033;-76
2022/12/22 23:02:57;;;;;;;1.02;0.70;;;;;;;;;;8285105;28;20757;-76
2022/12/22 23:06:57;;;;;;;0.80;0.65;;;;;;;;;;8267319;28;20103;-76
2022/12/22 23:11:01;;;;;;;0.50;0.50;;;;;;;;;;8268551;28;20048;-76
2022/12/22 23:15:01;;;;;;;6.57;3.10;;;;;;;;;;8268682;28;20018;-76
2022/12/22 23:19:02;;;;;;;24.85;4.55;;;;;;;;;;8267278;28;20038;-76
2022/12/22 23:23:02;;;;;;;16.15;2.72;;;;;;;;;;8271045;28;20050;-76
2022/12/22 23:27:02;;;;;;;62.92;4.78;;;;;;;;;;8269280;28;20032;-76
2022/12/22 23:31:02;;;;;;;292.73;9.95;;;;;;;;;;8271856;28;20041;-76
2022/12/22 23:35:02;;;;;;;323.77;10.05;;;;;;;;;;8268725;28;20029;-76
2022/12/22 23:39:03;;;;;;;81.97;3.85;;;;;;;;;;8268272;28;20029;-76
2022/12/22 23:43:04;;;;;;;297.63;8.70;;;;;;;;;;8268084;28;20029;-76
2022/12/22 23:47:04;;;;;;;139.18;5.13;;;;;;;;;;8274697;28;20161;-75
2022/12/22 23:51:05;;;;;;;5.33;2.83;;;;;;;;;;8268223;28;20041;-76
2022/12/22 23:55:06;;;;;;;419.02;10.65;;;;;;;;;;8266789;28;20272;-76
2022/12/22 23:59:06;;;;;;;480.13;11.95;;;;;;;;;;8265673;28;20802;-76
